Flight Track Log - Related Links

Times and Time Zones

All times are in EDT time to prevent confusion due to time zone crossing. See the UAL420 flight status page for this flight to view local times or setup timezone preferences in your user account.

Time Position Orientation Groundspeed Altitude Reporting Facility
EDT Latitude Longitude Course Direction KTS MPH feet Rate Location/Type
Sat 09:14:15 PM 41.9845 -87.8668 45° Northeast  Level FlightAware Approximate
Sat 09:15:15 PM 42.0010 -87.7136 297° West  Level FlightAware Approximate
Sat 09:16:15 PM 42.0333 -87.8000 82° East 215 247 4,900  Level Chicago TRACON
Sat 09:18:15 PM 42.0517 -87.6133 82° East 265 305 10,600 2,633 Climbing Chicago Center
Sat 09:19:15 PM 42.0664 -87.4786 82° East 314 361 12,800 2,400 Climbing Chicago Center
Sat 09:20:15 PM 42.0825 -87.3300 81° East 368 423 15,400 2,700 Climbing Chicago Center
Sat 09:21:15 PM 42.1006 -87.1783 82° East 396 456 18,200 2,650 Climbing Chicago Center
Sat 09:22:15 PM 42.1164 -87.0181 87° East 418 481 20,700 2,150 Climbing Chicago Center
Sat 09:23:15 PM 42.1231 -86.8497 88° East 435 501 22,500 1,900 Climbing Chicago Center
Sat 09:24:15 PM 42.1272 -86.6622 88° East 448 516 24,500 1,900 Climbing Chicago Center
Sat 09:25:15 PM 42.1311 -86.4772 87° East 468 539 26,300 1,850 Climbing Chicago Center
Sat 09:26:15 PM 42.1389 -86.2947 89° East 480 552 28,200 2,300 Climbing Chicago Center
Sat 09:27:15 PM 42.1422 -86.1153 89° East 480 552 30,900 2,300 Climbing Chicago Center
Sat 09:28:15 PM 42.1436 -85.9417 91° East 475 547 32,800 1,050 Climbing Chicago Center
Sat 09:29:15 PM 42.1403 -85.7653 91° East 475 547 33,000 100 Climbing Chicago Center
Sat 09:30:15 PM 42.1389 -85.5944 91° East 468 539 33,000  Level Chicago Center
Sat 09:31:48 PM 42.1344 -85.3411 90° East 456 525 33,000  Level Cleveland Center
Sat 09:32:48 PM 42.1333 -85.1644 92° East 466 536 33,000  Level Cleveland Center
Sat 09:33:48 PM 42.1297 -84.9906 92° East 466 536 33,000  Level Cleveland Center
Sat 09:34:48 PM 42.1258 -84.8139 93° East 466 536 33,000 -50 Level Cleveland Center
Sat 09:35:48 PM 42.1183 -84.6203 88° East 466 536 32,900  Descending Cleveland Center
Sat 09:36:48 PM 42.1222 -84.4439 83° East 466 536 33,000 50 Climbing Cleveland Center
Sat 09:37:48 PM 42.1383 -84.2742 81° East 461 531 33,000 -50 Level Cleveland Center
Sat 09:38:48 PM 42.1583 -84.0989 81° East 466 536 32,900 -50 Descending Cleveland Center
Sat 09:39:48 PM 42.1753 -83.9483 80° East 461 531 32,900  Level Cleveland Center
Sat 09:40:48 PM 42.1969 -83.7728 81° East 461 531 32,900  Level Cleveland Center
Sat 09:41:48 PM 42.2161 -83.6028 85° East 461 531 32,900 50 Level Cleveland Center
Sat 09:42:48 PM 42.2269 -83.4294 90° East 468 539 33,000 50 Climbing Cleveland Center
Sat 09:43:48 PM 42.2269 -83.2528 92° East 463 533 33,000 -50 Level Cleveland Center
Sat 09:44:48 PM 42.2211 -83.0533 92° East 478 550 32,900 -50 Descending Cleveland Center
Sat 09:45:48 PM 42.2164 -82.8736 92° East 478 550 32,900  Level Cleveland Center
Sat 09:46:48 PM 42.2131 -82.7167 91° East 478 550 32,900  Level Cleveland Center
Sat 09:47:48 PM 42.2100 -82.5428 92° East 478 550 32,900  Level Cleveland Center
Sat 09:48:48 PM 42.2047 -82.3575 93° East 478 550 32,900 -400 Level Cleveland Center
Sat 09:49:48 PM 42.1989 -82.1836 90° East 478 550 32,100 -900 Descending Cleveland Center
Sat 09:50:48 PM 42.1975 -81.9817 91° East 478 550 31,100 -1,000 Descending Cleveland Center
Sat 09:51:48 PM 42.1953 -81.8078 93° East 478 550 30,100 -1,200 Descending Cleveland Center
Sat 09:52:48 PM 42.1883 -81.6481 92° East 478 550 28,700 -1,550 Descending Cleveland Center
Sat 09:53:48 PM 42.1836 -81.4742 93° East 473 544 27,000 -850 Descending Cleveland Center
Sat 09:54:48 PM 42.1767 -81.3033 92° East 463 533 27,000  Level Cleveland Center
Sat 09:55:48 PM 42.1714 -81.1294 92° East 463 533 27,000  Level Cleveland Center
Sat 09:56:48 PM 42.1678 -80.9586 70° East 453 521 27,000 -50 Level Cleveland Center
Sat 09:57:48 PM 42.2119 -80.7933 64° Northeast 441 507 26,900 -50 Descending Cleveland Center
Sat 09:58:48 PM 42.2664 -80.6450 66° East 435 501 26,900 -900 Level Cleveland Center
Sat 09:59:48 PM 42.3164 -80.4961 65° Northeast 435 501 25,100 -1,700 Descending Cleveland Center
Sat 10:00:48 PM 42.3661 -80.3528 66° East 435 501 23,500 -1,500 Descending Cleveland Center
Sat 10:01:48 PM 42.4097 -80.2175 65° Northeast 408 470 22,100 -1,350 Descending Cleveland Center
Sat 10:02:48 PM 42.4528 -80.0908 63° Northeast 379 436 20,800 -1,750 Descending Cleveland Center
Sat 10:03:48 PM 42.4983 -79.9692 67° East 360 414 18,600 -1,750 Descending Cleveland Center
Sat 10:04:48 PM 42.5350 -79.8506 66° East 360 414 17,300 -1,550 Descending Cleveland Center
Sat 10:05:48 PM 42.5739 -79.7317 65° Northeast 349 402 15,500 -1,900 Descending Cleveland Center
Sat 10:06:48 PM 42.6144 -79.6156 64° Northeast 338 389 13,500 -1,800 Descending Cleveland Center
Sat 10:07:48 PM 42.6553 -79.5019 69° East 338 389 11,900 -1,250 Descending Cleveland Center
Sat 10:08:48 PM 42.6814 -79.4111 65° Northeast 328 377 11,000 -450 Descending Cleveland Center
Sat 10:09:48 PM 42.7300 -79.2689 68° East 334 384 11,000  Level Cleveland Center
Sat 10:10:48 PM 42.7661 -79.1494 75° East 341 392 11,000  Level Cleveland Center
Sat 10:11:48 PM 42.7914 -79.0244 75° East 336 387 11,000  Level Cleveland Center
Sat 10:12:48 PM 42.8128 -78.9133 75° East 336 387 11,000  Level Cleveland Center
Sat 10:13:48 PM 42.8381 -78.7881 74° East 341 392 11,000  Level Cleveland Center
Sat 10:14:48 PM 42.8633 -78.6656 74° East 341 392 11,000 -250 Level Cleveland Center
Sat 10:15:48 PM 42.8883 -78.5458 77° East 330 380 10,500 -1,050 Descending Cleveland Center
Sat 10:16:48 PM 42.9089 -78.4203 84° East 308 354 8,900 -1,500 Descending Cleveland Center
Sat 10:17:48 PM 42.9172 -78.3125 82° East 294 338 7,500 -1,133 Descending Cleveland Center
Sat 10:18:18 PM 42.9225 -78.2583 79° East 288 331 7,200 -400 Descending Cleveland Center
Sat 10:18:48 PM 42.9297 -78.2069 82° East 288 331 7,100 -300 Descending Cleveland Center
Sat 10:19:18 PM 42.9350 -78.1558 71° East 283 326 6,900 -1,253 Descending Cleveland Center
Sat 10:20:19 PM 42.9600 -78.0556 72° East 277 319 5,200 -1,377 Descending Cleveland Center
Sat 10:21:20 PM 42.9828 -77.9608 72° East 267 307 4,100 -1,082 Descending Cleveland Center

Login

Don't have an account? Register now (free) for customized features, flight alerts, and more!